Time;durP1;ratioP1;P1;durP2;ratioP2;P2;SDS_P1;SDS_P2;PMS_P1;PMS_P2;Temp;Humidity;BMP_temperature;BMP_pressure;BME280_temperature;BME280_humidity;BME280_pressure;Samples;Min_cycle;Max_cycle;Signal;HPM_P1;HPM_P2
2022/09/27 00:01:08;;;;;;;;;;;12.60;91.60;;;;;;6121118;23;19944;-81
2022/09/27 00:03:35;;;;;;;;;;;12.40;92.90;;;;;;6123321;23;19937;-81
2022/09/27 00:06:12;;;;;;;;;;;12.20;93.80;;;;;;6122432;23;19928;-81
2022/09/27 00:08:39;;;;;;;;;;;12.10;95.60;;;;;;6122503;23;20397;-81
2022/09/27 00:11:07;;;;;;;;;;;12.10;95.50;;;;;;6120565;23;20004;-81
2022/09/27 00:13:34;;;;;;;;;;;12.10;95.20;;;;;;6120401;23;20258;-81
2022/09/27 00:16:04;;;;;;;;;;;12.10;95.00;;;;;;6119313;23;20327;-81
2022/09/27 00:18:31;;;;;;;;;;;12.20;94.60;;;;;;6119719;23;19972;-81
2022/09/27 00:21:09;;;;;;;;;;;12.20;94.10;;;;;;6118622;23;19992;-81
2022/09/27 00:23:36;;;;;;;;;;;12.20;93.60;;;;;;6097914;23;19917;-81
2022/09/27 00:26:03;;;;;;;;;;;12.20;93.60;;;;;;6119335;23;19944;-81
2022/09/27 00:28:30;;;;;;;;;;;12.10;93.50;;;;;;6120764;23;20325;-81
2022/09/27 00:30:57;;;;;;;;;;;12.10;93.60;;;;;;6118686;23;19992;-81
2022/09/27 00:33:24;;;;;;;;;;;12.00;94.10;;;;;;6095793;23;19943;-81
2022/09/27 00:35:51;;;;;;;;;;;12.00;93.90;;;;;;6120481;23;19917;-81
2022/09/27 00:38:18;;;;;;;;;;;12.00;93.90;;;;;;6119581;23;19945;-81
2022/09/27 00:40:45;;;;;;;;;;;11.90;94.20;;;;;;6120161;23;19921;-81
2022/09/27 00:43:14;;;;;;;;;;;11.90;94.00;;;;;;6119002;23;19945;-81
2022/09/27 00:45:42;;;;;;;;;;;11.90;93.50;;;;;;6120130;23;20335;-81
2022/09/27 00:48:12;;;;;;;;;;;11.90;93.40;;;;;;6096578;23;20254;-80
2022/09/27 00:50:41;;;;;;;;;;;11.90;93.10;;;;;;6120222;23;19993;-81
2022/09/27 00:53:13;;;;;;;;;;;11.80;93.50;;;;;;6119180;23;19917;-81
2022/09/27 00:55:52;;;;;;;;;;;11.70;94.10;;;;;;6119739;23;19917;-81
2022/09/27 00:58:22;;;;;;;;;;;11.70;93.60;;;;;;6119210;23;19963;-81
2022/09/27 01:00:50;;;;;;;;;;;11.70;94.20;;;;;;6120579;23;19940;-85
2022/09/27 01:03:30;;;;;;;;;;;11.80;93.60;;;;;;6118634;23;19928;-84
2022/09/27 01:05:58;;;;;;;;;;;11.80;93.40;;;;;;6118815;23;19925;-85
2022/09/27 01:08:25;;;;;;;;;;;11.80;93.40;;;;;;6119344;23;19992;-85
2022/09/27 01:10:59;;;;;;;;;;;11.80;93.80;;;;;;6119827;23;20382;-85
2022/09/27 01:13:33;;;;;;;;;;;11.80;94.20;;;;;;6119119;23;19996;-85
2022/09/27 01:16:09;;;;;;;;;;;11.80;93.80;;;;;;6119550;23;19939;-85
2022/09/27 01:18:48;;;;;;;;;;;11.70;93.80;;;;;;6093995;23;19917;-85
2022/09/27 01:21:44;;;;;;;;;;;11.70;93.60;;;;;;6118585;23;20325;-85
2022/09/27 01:24:25;;;;;;;;;;;11.70;93.80;;;;;;6083918;23;19951;-85
2022/09/27 01:27:11;;;;;;;;;;;11.70;93.30;;;;;;6119037;23;19921;-84
2022/09/27 01:29:53;;;;;;;;;;;11.60;93.60;;;;;;6118864;23;19921;-85
2022/09/27 01:32:25;;;;;;;;;;;11.50;94.20;;;;;;6119192;23;19921;-84
2022/09/27 01:35:27;;;;;;;;;;;11.50;94.20;;;;;;6118679;23;19925;-84
2022/09/27 01:37:54;;;;;;;;;;;11.50;94.10;;;;;;6012343;23;19988;-85
2022/09/27 01:40:40;;;;;;;;;;;11.50;93.70;;;;;;6082596;23;19953;-85
2022/09/27 01:43:09;;;;;;;;;;;11.50;93.50;;;;;;6118640;23;19924;-85
2022/09/27 01:45:56;;;;;;;;;;;11.50;93.50;;;;;;6119256;23;19927;-85
2022/09/27 01:48:26;;;;;;;;;;;11.50;93.30;;;;;;6094209;23;19917;-86
2022/09/27 01:51:11;;;;;;;;;;;11.40;93.00;;;;;;6119093;23;19917;-86
2022/09/27 01:53:49;;;;;;;;;;;11.40;93.00;;;;;;6118885;23;19917;-85
2022/09/27 01:56:18;;;;;;;;;;;11.40;92.90;;;;;;6118017;23;19921;-85
2022/09/27 01:59:11;;;;;;;;;;;11.40;92.60;;;;;;6118788;23;19923;-85
2022/09/27 02:01:38;;;;;;;;;;;11.40;92.40;;;;;;6091117;23;19917;-85
2022/09/27 02:04:06;;;;;;;;;;;11.30;92.60;;;;;;6119290;23;19927;-85
2022/09/27 02:06:35;;;;;;;;;;;11.20;92.60;;;;;;6118147;23;20390;-85
2022/09/27 02:09:04;;;;;;;;;;;11.20;94.80;;;;;;6118963;23;20017;-85
2022/09/27 02:11:32;;;;;;;;;;;11.20;94.10;;;;;;6118541;23;19940;-85
2022/09/27 02:14:11;;;;;;;;;;;11.10;94.60;;;;;;6119135;23;19943;-86
2022/09/27 02:16:43;;;;;;;;;;;11.10;94.60;;;;;;6118175;23;19987;-85
2022/09/27 02:19:29;;;;;;;;;;;11.10;94.00;;;;;;6119071;23;19928;-85
2022/09/27 02:22:34;;;;;;;;;;;11.00;95.80;;;;;;6118327;23;20299;-85
2022/09/27 02:25:06;;;;;;;;;;;11.00;96.50;;;;;;6012283;23;20008;-86
2022/09/27 02:27:34;;;;;;;;;;;11.00;95.90;;;;;;6012767;23;19988;-85
2022/09/27 02:30:06;;;;;;;;;;;11.00;96.00;;;;;;6052252;23;20004;-85
2022/09/27 02:32:33;;;;;;;;;;;11.00;96.90;;;;;;6118985;23;20262;-85
2022/09/27 02:35:02;;;;;;;;;;;11.00;97.10;;;;;;6094003;23;19917;-85
2022/09/27 02:37:29;;;;;;;;;;;11.00;98.00;;;;;;6133582;23;20328;-78
2022/09/27 02:39:56;;;;;;;;;;;11.00;97.50;;;;;;6144555;23;19928;-79
2022/09/27 02:42:23;;;;;;;;;;;11.10;97.80;;;;;;6144559;23;19957;-79
2022/09/27 02:44:50;;;;;;;;;;;11.10;98.20;;;;;;6119714;23;19944;-78
2022/09/27 02:47:26;;;;;;;;;;;11.10;98.70;;;;;;6144767;23;19945;-78
2022/09/27 02:49:53;;;;;;;;;;;11.00;99.00;;;;;;6099690;23;19992;-86
2022/09/27 02:52:28;;;;;;;;;;;11.00;98.80;;;;;;6119130;23;19941;-86
2022/09/27 02:54:58;;;;;;;;;;;11.00;98.80;;;;;;6117620;23;19921;-86
2022/09/27 02:57:46;;;;;;;;;;;11.10;98.70;;;;;;6095955;23;19932;-86
2022/09/27 03:00:18;;;;;;;;;;;11.00;98.80;;;;;;6118405;23;19952;-85
2022/09/27 03:02:45;;;;;;;;;;;10.90;99.90;;;;;;6118845;23;19941;-85
2022/09/27 03:05:29;;;;;;;;;;;10.90;99.90;;;;;;6118504;23;19918;-84
2022/09/27 03:07:55;;;;;;;;;;;11.00;99.50;;;;;;6118091;23;19921;-86
2022/09/27 03:10:24;;;;;;;;;;;11.00;99.00;;;;;;6119728;23;19992;-85
2022/09/27 03:12:51;;;;;;;;;;;10.90;99.00;;;;;;6119899;23;19923;-84
2022/09/27 03:15:17;;;;;;;;;;;10.90;99.10;;;;;;6120628;23;19924;-86
2022/09/27 03:17:44;;;;;;;;;;;10.90;98.60;;;;;;6120814;23;19917;-86
2022/09/27 03:20:11;;;;;;;;;;;10.90;98.30;;;;;;6119605;23;19953;-86
2022/09/27 03:22:39;;;;;;;;;;;10.90;98.00;;;;;;6120610;23;19924;-85
2022/09/27 03:25:06;;;;;;;;;;;10.80;97.70;;;;;;6120029;23;19956;-85
2022/09/27 03:27:33;;;;;;;;;;;10.80;97.30;;;;;;6120814;23;19972;-85
2022/09/27 03:30:00;;;;;;;;;;;10.80;97.30;;;;;;6119555;23;19917;-86
2022/09/27 03:32:27;;;;;;;;;;;10.80;97.70;;;;;;6120786;23;19973;-85
2022/09/27 03:34:54;;;;;;;;;;;10.70;98.60;;;;;;6119624;23;19961;-85
2022/09/27 03:37:21;;;;;;;;;;;10.60;98.30;;;;;;6120589;23;20397;-86
2022/09/27 03:39:48;;;;;;;;;;;10.70;97.90;;;;;;6097609;23;19921;-85
2022/09/27 03:42:14;;;;;;;;;;;10.60;98.30;;;;;;6119779;23;19992;-85
2022/09/27 03:44:42;;;;;;;;;;;10.50;98.80;;;;;;6120497;23;19927;-85
2022/09/27 03:47:08;;;;;;;;;;;10.50;98.70;;;;;;6097096;23;19921;-85
2022/09/27 03:49:35;;;;;;;;;;;10.40;98.60;;;;;;6120460;23;19941;-85
2022/09/27 03:52:02;;;;;;;;;;;10.50;98.30;;;;;;6119499;23;19988;-83
2022/09/27 03:54:29;;;;;;;;;;;10.50;98.10;;;;;;6120364;23;20409;-85
2022/09/27 03:56:55;;;;;;;;;;;10.50;98.20;;;;;;6119499;23;19928;-85
2022/09/27 03:59:22;;;;;;;;;;;10.30;99.00;;;;;;6120322;23;19923;-85
2022/09/27 04:01:49;;;;;;;;;;;10.30;99.30;;;;;;6095931;23;20003;-86
2022/09/27 04:04:16;;;;;;;;;;;10.40;99.00;;;;;;6119905;23;19944;-85
2022/09/27 04:06:42;;;;;;;;;;;10.40;98.50;;;;;;6120043;23;19962;-85
2022/09/27 04:09:09;;;;;;;;;;;10.30;99.30;;;;;;6119615;23;19939;-86
2022/09/27 04:11:36;;;;;;;;;;;10.30;98.50;;;;;;6095936;23;19920;-85
2022/09/27 04:14:04;;;;;;;;;;;10.30;98.10;;;;;;6095286;23;19917;-85
2022/09/27 04:16:32;;;;;;;;;;;10.20;97.70;;;;;;6120337;23;19921;-85
2022/09/27 04:19:00;;;;;;;;;;;10.20;97.80;;;;;;6119009;23;19947;-85
2022/09/27 04:21:27;;;;;;;;;;;10.20;97.50;;;;;;6119788;23;20254;-85
2022/09/27 04:23:53;;;;;;;;;;;10.10;97.40;;;;;;6119350;23;19924;-84
2022/09/27 04:26:21;;;;;;;;;;;10.10;97.20;;;;;;6120177;23;19917;-86
2022/09/27 04:28:49;;;;;;;;;;;10.10;97.00;;;;;;6120109;23;20000;-85
2022/09/27 04:31:20;;;;;;;;;;;10.10;96.80;;;;;;6118915;23;19917;-85
2022/09/27 04:33:47;;;;;;;;;;;10.00;96.60;;;;;;6119784;23;19950;-85
2022/09/27 04:36:26;;;;;;;;;;;9.80;97.50;;;;;;6119157;23;19923;-85
2022/09/27 04:38:58;;;;;;;;;;;9.70;98.70;;;;;;6096802;23;19917;-85
2022/09/27 04:41:26;;;;;;;;;;;9.60;99.30;;;;;;6119206;23;19948;-85
2022/09/27 04:43:54;;;;;;;;;;;9.70;99.10;;;;;;6119804;23;19937;-85
2022/09/27 04:46:25;;;;;;;;;;;9.70;98.70;;;;;;6118584;23;19917;-85
2022/09/27 04:48:52;;;;;;;;;;;9.70;98.40;;;;;;6119626;23;19917;-85
2022/09/27 04:51:19;;;;;;;;;;;9.70;98.30;;;;;;6119099;23;19996;-85
2022/09/27 04:53:46;;;;;;;;;;;9.80;97.90;;;;;;6119958;23;19988;-85
2022/09/27 04:56:14;;;;;;;;;;;9.70;97.80;;;;;;6119206;23;20301;-85
2022/09/27 04:58:41;;;;;;;;;;;9.70;97.90;;;;;;6119637;23;19921;-84
2022/09/27 05:01:08;;;;;;;;;;;9.60;97.70;;;;;;6119024;23;20385;-85
2022/09/27 05:03:35;;;;;;;;;;;9.60;97.60;;;;;;6119301;23;19917;-85
2022/09/27 05:06:02;;;;;;;;;;;9.60;97.10;;;;;;6119024;23;19992;-84
2022/09/27 05:08:28;;;;;;;;;;;9.60;96.80;;;;;;6119552;23;19944;-84
2022/09/27 05:10:55;;;;;;;;;;;9.60;96.60;;;;;;6119956;23;19997;-85
2022/09/27 05:13:22;;;;;;;;;;;9.50;96.70;;;;;;6119108;23;19956;-85
2022/09/27 05:15:48;;;;;;;;;;;9.50;96.50;;;;;;6119583;23;20326;-85
2022/09/27 05:18:16;;;;;;;;;;;9.30;96.40;;;;;;6118695;23;20327;-85
2022/09/27 05:20:43;;;;;;;;;;;9.20;97.20;;;;;;6095344;23;19917;-86
2022/09/27 05:23:11;;;;;;;;;;;9.20;97.00;;;;;;6118829;23;19921;-85
2022/09/27 05:25:37;;;;;;;;;;;9.20;96.70;;;;;;6119511;23;19921;-85
2022/09/27 05:28:05;;;;;;;;;;;9.20;96.50;;;;;;6118677;23;19997;-84
2022/09/27 05:30:31;;;;;;;;;;;9.20;96.40;;;;;;6119409;23;19989;-86
2022/09/27 05:32:58;;;;;;;;;;;9.30;96.30;;;;;;6118803;23;20373;-85
2022/09/27 05:35:25;;;;;;;;;;;9.30;96.40;;;;;;6118810;23;19974;-86
2022/09/27 05:37:53;;;;;;;;;;;9.30;96.40;;;;;;6119568;23;20287;-86
2022/09/27 05:40:23;;;;;;;;;;;9.30;97.00;;;;;;6118331;23;20315;-85
2022/09/27 05:43:07;;;;;;;;;;;9.20;96.80;;;;;;6115521;23;20253;-85
2022/09/27 05:45:33;;;;;;;;;;;9.20;96.70;;;;;;6119374;23;19968;-85
2022/09/27 05:48:00;;;;;;;;;;;9.10;96.70;;;;;;6119546;23;19941;-82
2022/09/27 05:50:27;;;;;;;;;;;9.00;97.20;;;;;;6118361;23;19923;-82
2022/09/27 05:52:54;;;;;;;;;;;9.00;97.40;;;;;;6094614;23;19937;-82
2022/09/27 05:55:21;;;;;;;;;;;9.10;97.20;;;;;;6118282;23;19940;-82
2022/09/27 05:57:58;;;;;;;;;;;9.10;97.40;;;;;;6118997;23;19957;-81
2022/09/27 06:00:25;;;;;;;;;;;9.10;97.40;;;;;;6094863;23;19917;-82
2022/09/27 06:02:57;;;;;;;;;;;9.20;97.60;;;;;;6118984;23;20418;-83
2022/09/27 06:05:24;;;;;;;;;;;9.20;97.60;;;;;;6118344;23;20244;-82
2022/09/27 06:07:52;;;;;;;;;;;9.30;97.60;;;;;;6119251;23;20402;-82
2022/09/27 06:10:18;;;;;;;;;;;9.30;98.00;;;;;;6116369;23;19960;-82
2022/09/27 06:12:45;;;;;;;;;;;9.30;99.80;;;;;;6119203;23;19944;-83
2022/09/27 06:15:13;;;;;;;;;;;9.40;99.70;;;;;;6118050;23;19923;-82
2022/09/27 06:17:40;;;;;;;;;;;9.50;99.50;;;;;;6118518;23;20327;-82
2022/09/27 06:20:07;;;;;;;;;;;9.50;99.80;;;;;;6118167;23;20407;-81
2022/09/27 06:22:35;;;;;;;;;;;9.50;99.90;;;;;;6096135;23;20258;-82
2022/09/27 06:25:03;;;;;;;;;;;9.50;99.90;;;;;;6119126;23;20257;-82
2022/09/27 06:27:30;;;;;;;;;;;9.60;99.90;;;;;;6118324;23;20478;-82
2022/09/27 06:29:57;;;;;;;;;;;9.70;99.90;;;;;;6119160;23;19988;-82
2022/09/27 06:32:24;;;;;;;;;;;9.80;99.90;;;;;;6117514;23;20004;-82
2022/09/27 06:34:55;;;;;;;;;;;9.90;99.90;;;;;;6119027;23;19922;-82
2022/09/27 06:37:25;;;;;;;;;;;10.00;99.90;;;;;;6095329;23;19917;-83
2022/09/27 06:39:57;;;;;;;;;;;10.10;99.90;;;;;;6096101;23;19924;-82
2022/09/27 06:42:26;;;;;;;;;;;10.20;99.90;;;;;;6117680;23;19992;-82
2022/09/27 06:44:53;;;;;;;;;;;10.20;99.70;;;;;;6120165;23;19941;-82
2022/09/27 06:47:19;;;;;;;;;;;10.30;99.90;;;;;;6119748;23;19943;-82
2022/09/27 06:49:48;;;;;;;;;;;10.40;99.90;;;;;;6120285;23;20374;-82
2022/09/27 06:52:18;;;;;;;;;;;10.50;99.90;;;;;;6097154;23;19923;-82
2022/09/27 06:54:45;;;;;;;;;;;10.60;99.90;;;;;;6120834;23;20326;-83
2022/09/27 07:00:22;;;;;;;;;;;10.70;99.90;;;;;;6119736;23;19918;-82
2022/09/27 07:02:44;;;;;;;;;;;10.90;99.90;;;;;;6097377;23;21791;-82
2022/09/27 07:05:11;;;;;;;;;;;11.20;99.80;;;;;;6120451;23;20232;-82
2022/09/27 07:07:38;;;;;;;;;;;11.40;99.60;;;;;;6119157;23;20318;-82
2022/09/27 07:10:05;;;;;;;;;;;11.50;99.30;;;;;;6120960;23;20373;-82
2022/09/27 07:12:36;;;;;;;;;;;11.70;99.40;;;;;;6119343;23;19945;-81
2022/09/27 07:15:03;;;;;;;;;;;11.90;99.50;;;;;;6120028;23;20243;-82
2022/09/27 07:17:31;;;;;;;;;;;12.10;99.20;;;;;;6119357;23;20298;-82
2022/09/27 07:19:57;;;;;;;;;;;12.30;99.10;;;;;;6097274;23;19949;-82
2022/09/27 07:22:24;;;;;;;;;;;12.50;98.50;;;;;;6095426;23;19980;-82
2022/09/27 07:24:51;;;;;;;;;;;12.70;98.30;;;;;;6095723;23;19937;-82
2022/09/27 07:27:17;;;;;;;;;;;13.00;97.20;;;;;;6120035;23;19925;-82
2022/09/27 07:29:44;;;;;;;;;;;13.20;96.70;;;;;;6118261;23;20004;-82
2022/09/27 07:32:11;;;;;;;;;;;13.50;95.50;;;;;;6095284;23;20299;-81
2022/09/27 07:34:38;;;;;;;;;;;13.70;94.20;;;;;;6094424;23;19951;-82
2022/09/27 07:37:04;;;;;;;;;;;14.00;93.20;;;;;;6120156;23;19917;-82
2022/09/27 07:39:31;;;;;;;;;;;14.30;92.60;;;;;;6096479;23;19988;-82
2022/09/27 07:41:59;;;;;;;;;;;14.50;91.10;;;;;;6120043;23;19992;-82
2022/09/27 07:44:25;;;;;;;;;;;14.70;91.20;;;;;;6119365;23;19925;-82
2022/09/27 07:46:52;;;;;;;;;;;15.00;90.00;;;;;;6120629;23;20246;-82
2022/09/27 07:49:19;;;;;;;;;;;15.30;89.90;;;;;;6096699;23;19917;-81
2022/09/27 07:51:46;;;;;;;;;;;15.50;86.70;;;;;;6121010;23;20337;-81
2022/09/27 07:54:12;;;;;;;;;;;15.70;85.90;;;;;;6134318;23;19932;-80
2022/09/27 07:56:39;;;;;;;;;;;15.90;83.20;;;;;;6121514;23;19924;-82
2022/09/27 07:59:06;;;;;;;;;;;16.00;80.90;;;;;;6119979;23;20277;-81
2022/09/27 08:01:33;;;;;;;;;;;16.10;80.00;;;;;;6096070;23;19952;-82
2022/09/27 08:04:00;;;;;;;;;;;16.30;79.10;;;;;;6097430;23;20462;-81
2022/09/27 08:06:28;;;;;;;;;;;16.40;77.80;;;;;;6120189;23;20305;-82
2022/09/27 08:08:57;;;;;;;;;;;16.50;76.70;;;;;;6120054;23;19917;-82
2022/09/27 08:11:24;;;;;;;;;;;16.70;77.00;;;;;;6119506;23;19923;-81
2022/09/27 08:13:51;;;;;;;;;;;16.90;74.30;;;;;;6120052;23;20365;-82
2022/09/27 08:16:18;;;;;;;;;;;17.10;72.40;;;;;;6120312;23;19940;-82
2022/09/27 08:18:45;;;;;;;;;;;17.20;71.10;;;;;;6118649;23;19997;-81
2022/09/27 08:21:11;;;;;;;;;;;17.30;70.90;;;;;;6095557;23;19917;-82
2022/09/27 08:23:38;;;;;;;;;;;17.40;70.60;;;;;;6118965;23;20223;-81
2022/09/27 08:26:05;;;;;;;;;;;17.50;69.30;;;;;;6119747;23;19917;-82
2022/09/27 08:28:32;;;;;;;;;;;17.60;67.80;;;;;;6119387;23;19941;-82
2022/09/27 08:30:59;;;;;;;;;;;17.50;68.20;;;;;;6119680;23;19992;-82
2022/09/27 08:33:26;;;;;;;;;;;17.60;70.10;;;;;;6119254;23;20325;-81
2022/09/27 08:35:58;;;;;;;;;;;17.60;69.00;;;;;;6119444;23;19987;-82
2022/09/27 08:38:25;;;;;;;;;;;17.80;69.70;;;;;;6119214;23;19991;-82
2022/09/27 08:40:56;;;;;;;;;;;17.90;67.50;;;;;;6096818;23;19918;-82
2022/09/27 08:43:36;;;;;;;;;;;18.10;67.80;;;;;;6121009;23;19917;-82
2022/09/27 08:46:06;;;;;;;;;;;18.30;67.60;;;;;;6119986;23;19924;-82
2022/09/27 08:48:34;;;;;;;;;;;18.40;66.50;;;;;;6119913;23;20250;-82
2022/09/27 08:51:01;;;;;;;;;;;18.30;64.60;;;;;;6119599;23;19917;-82
2022/09/27 08:53:35;;;;;;;;;;;18.40;65.50;;;;;;6119878;23;19944;-80
2022/09/27 08:56:02;;;;;;;;;;;18.50;65.20;;;;;;6119302;23;19918;-81
2022/09/27 08:58:34;;;;;;;;;;;18.70;64.10;;;;;;6119647;23;19995;-81
2022/09/27 09:01:03;;;;;;;;;;;18.80;66.20;;;;;;6120076;23;19944;-82
2022/09/27 09:03:31;;;;;;;;;;;19.00;64.00;;;;;;6119723;23;19923;-82
2022/09/27 09:06:01;;;;;;;;;;;19.00;63.90;;;;;;6118983;23;19924;-82
2022/09/27 09:08:43;;;;;;;;;;;19.10;63.20;;;;;;6119201;23;19924;-82
2022/09/27 09:14:38;;;;;;;;;;;19.40;62.40;;;;;;6095586;23;19925;-82
2022/09/27 09:17:11;;;;;;;;;;;19.60;61.40;;;;;;6119241;23;19921;-81
2022/09/27 09:19:37;;;;;;;;;;;19.70;61.30;;;;;;6119340;23;19917;-81
2022/09/27 09:22:27;;;;;;;;;;;19.80;62.10;;;;;;6117695;23;20232;-82
2022/09/27 09:25:14;;;;;;;;;;;19.60;62.40;;;;;;6117899;23;19991;-82
2022/09/27 09:27:40;;;;;;;;;;;19.80;63.00;;;;;;6119641;23;20266;-82
2022/09/27 09:30:07;;;;;;;;;;;19.60;62.20;;;;;;6118513;23;19924;-81
2022/09/27 09:32:48;;;;;;;;;;;19.70;63.50;;;;;;6119589;23;20367;-81
2022/09/27 09:35:18;;;;;;;;;;;19.80;61.00;;;;;;6118910;23;20239;-82
2022/09/27 09:37:48;;;;;;;;;;;19.80;62.00;;;;;;6117657;23;19917;-82
2022/09/27 09:40:15;;;;;;;;;;;19.90;60.90;;;;;;6118364;23;20333;-82
2022/09/27 09:42:48;;;;;;;;;;;20.10;60.80;;;;;;6119376;23;19917;-82
2022/09/27 09:45:20;;;;;;;;;;;20.10;60.10;;;;;;6118598;23;19984;-82
2022/09/27 09:48:03;;;;;;;;;;;20.20;59.30;;;;;;6118452;23;20341;-81
2022/09/27 09:50:35;;;;;;;;;;;20.20;59.50;;;;;;6117635;23;20044;-81
2022/09/27 09:53:28;;;;;;;;;;;20.40;60.30;;;;;;6118671;23;19921;-82
2022/09/27 09:55:58;;;;;;;;;;;20.60;59.60;;;;;;6091226;23;19923;-81
2022/09/27 09:58:48;;;;;;;;;;;20.60;59.00;;;;;;6119043;23;20035;-82
2022/09/27 10:01:19;;;;;;;;;;;20.50;58.10;;;;;;6118579;23;20291;-82
2022/09/27 10:03:46;;;;;;;;;;;20.30;58.80;;;;;;6118444;23;19917;-81
2022/09/27 10:06:14;;;;;;;;;;;20.40;60.60;;;;;;6117748;23;19917;-81
2022/09/27 10:08:41;;;;;;;;;;;20.40;58.20;;;;;;6118368;23;20323;-82
2022/09/27 10:11:16;;;;;;;;;;;20.40;58.40;;;;;;6118244;23;19917;-81
2022/09/27 10:13:44;;;;;;;;;;;20.50;58.50;;;;;;6118863;23;19917;-81
2022/09/27 10:16:12;;;;;;;;;;;20.50;56.70;;;;;;6093433;23;19930;-81
2022/09/27 10:18:40;;;;;;;;;;;20.60;56.90;;;;;;6095098;23;19925;-81
2022/09/27 10:21:16;;;;;;;;;;;20.70;56.20;;;;;;6116915;23;19925;-82
2022/09/27 10:24:03;;;;;;;;;;;20.80;56.50;;;;;;6118235;23;19917;-82
2022/09/27 10:26:30;;;;;;;;;;;21.10;57.50;;;;;;6116382;23;19941;-82
2022/09/27 10:29:12;;;;;;;;;;;21.40;54.90;;;;;;6118364;23;19993;-82
2022/09/27 10:31:44;;;;;;;;;;;21.60;54.60;;;;;;6117949;23;19917;-82
2022/09/27 10:34:26;;;;;;;;;;;22.00;55.00;;;;;;6119181;23;20266;-82
2022/09/27 10:37:11;;;;;;;;;;;22.00;52.30;;;;;;6117690;23;20000;-82
2022/09/27 10:39:39;;;;;;;;;;;21.80;52.40;;;;;;6118073;23;20250;-81
2022/09/27 10:42:25;;;;;;;;;;;21.80;52.80;;;;;;6118214;23;19988;-81
2022/09/27 10:44:52;;;;;;;;;;;21.90;53.20;;;;;;6117493;23;19992;-82
2022/09/27 10:47:22;;;;;;;;;;;21.90;53.70;;;;;;6118328;23;19984;-81
2022/09/27 10:49:53;;;;;;;;;;;21.90;52.60;;;;;;6117792;23;19932;-82
2022/09/27 10:52:23;;;;;;;;;;;22.00;50.60;;;;;;6117265;23;19917;-82
2022/09/27 10:54:54;;;;;;;;;;;21.60;51.60;;;;;;6117066;23;19925;-81
2022/09/27 10:57:22;;;;;;;;;;;21.60;53.30;;;;;;6118034;23;19927;-81
2022/09/27 10:59:51;;;;;;;;;;;21.80;51.70;;;;;;6117317;23;19917;-82
2022/09/27 11:02:23;;;;;;;;;;;21.50;50.90;;;;;;6118562;23;19917;-82
2022/09/27 11:05:10;;;;;;;;;;;21.60;51.60;;;;;;6093731;23;19931;-82
2022/09/27 11:07:49;;;;;;;;;;;21.90;51.70;;;;;;6116504;23;19921;-81
2022/09/27 11:10:27;;;;;;;;;;;22.20;50.60;;;;;;6117945;23;20025;-82
2022/09/27 11:13:15;;;;;;;;;;;22.60;50.30;;;;;;6117033;23;19917;-82
2022/09/27 11:16:00;;;;;;;;;;;22.80;47.50;;;;;;6093724;23;20292;-82
2022/09/27 11:18:27;;;;;;;;;;;22.80;47.10;;;;;;6118918;23;19917;-81
2022/09/27 11:20:56;;;;;;;;;;;23.10;46.50;;;;;;6117215;23;19997;-81
2022/09/27 11:23:42;;;;;;;;;;;23.10;44.50;;;;;;6121048;23;20346;-81
2022/09/27 11:26:44;;;;;;;;;;;22.90;46.50;;;;;;6119608;23;19945;-81
2022/09/27 11:29:11;;;;;;;;;;;23.10;47.10;;;;;;6015327;23;20359;-81
2022/09/27 11:32:01;;;;;;;;;;;23.30;45.20;;;;;;6087431;23;19944;-82
2022/09/27 11:34:52;;;;;;;;;;;23.00;43.40;;;;;;6092005;23;19949;-81
2022/09/27 11:37:42;;;;;;;;;;;22.90;43.60;;;;;;6120854;23;19949;-82
2022/09/27 11:40:09;;;;;;;;;;;23.00;45.00;;;;;;6122070;23;19992;-81
2022/09/27 11:42:44;;;;;;;;;;;23.10;43.00;;;;;;6122168;23;19943;-81
2022/09/27 11:45:29;;;;;;;;;;;23.40;43.10;;;;;;6123150;23;19987;-81
2022/09/27 11:48:22;;;;;;;;;;;23.50;42.80;;;;;;6119207;23;19921;-82
2022/09/27 11:50:55;;;;;;;;;;;23.70;44.20;;;;;;6124575;23;20008;-82
2022/09/27 11:53:25;;;;;;;;;;;23.60;42.50;;;;;;6123859;23;19921;-81
2022/09/27 11:55:54;;;;;;;;;;;23.40;43.20;;;;;;6123143;23;19921;-81
2022/09/27 11:58:29;;;;;;;;;;;23.50;43.80;;;;;;6123271;23;19921;-81
2022/09/27 12:01:08;;;;;;;;;;;23.60;43.90;;;;;;6123156;23;19967;-81
2022/09/27 12:03:34;;;;;;;;;;;23.40;43.30;;;;;;6121956;23;19927;-81
2022/09/27 12:06:06;;;;;;;;;;;23.50;44.70;;;;;;6121512;23;19951;-81
2022/09/27 12:08:45;;;;;;;;;;;23.90;42.60;;;;;;6097710;23;19961;-81
2022/09/27 12:11:24;;;;;;;;;;;24.00;41.80;;;;;;6119618;23;20019;-81
2022/09/27 12:14:00;;;;;;;;;;;24.40;42.00;;;;;;6099030;23;19952;-81
2022/09/27 12:16:27;;;;;;;;;;;24.40;39.20;;;;;;6121435;23;19918;-81
2022/09/27 12:18:54;;;;;;;;;;;24.30;38.20;;;;;;6122521;23;20283;-81
2022/09/27 12:21:21;;;;;;;;;;;24.00;38.30;;;;;;6095342;23;19965;-82
2022/09/27 12:23:50;;;;;;;;;;;24.20;41.40;;;;;;6123496;23;19917;-81
2022/09/27 12:26:24;;;;;;;;;;;24.30;39.50;;;;;;6121961;23;19917;-81
2022/09/27 12:28:55;;;;;;;;;;;24.10;39.40;;;;;;6103664;23;19928;-82
2022/09/27 12:31:25;;;;;;;;;;;23.80;39.40;;;;;;6126874;23;19925;-82
2022/09/27 12:34:35;;;;;;;;;;;23.70;40.00;;;;;;6128342;23;19917;-81
2022/09/27 12:37:04;;;;;;;;;;;23.90;41.70;;;;;;6044488;23;19937;-81
2022/09/27 12:39:51;;;;;;;;;;;23.90;42.70;;;;;;6071196;23;20394;-81
2022/09/27 12:42:20;;;;;;;;;;;23.60;42.20;;;;;;6081818;23;19957;-81
2022/09/27 12:44:47;;;;;;;;;;;23.80;40.50;;;;;;6125211;23;20008;-81
2022/09/27 12:47:23;;;;;;;;;;;23.70;41.90;;;;;;6122695;23;20294;-81
2022/09/27 12:49:59;;;;;;;;;;;23.80;41.00;;;;;;6125589;23;19917;-82
2022/09/27 12:52:30;;;;;;;;;;;23.80;44.00;;;;;;6128470;23;19925;-82
2022/09/27 12:55:10;;;;;;;;;;;23.80;42.70;;;;;;6101631;23;19989;-81
2022/09/27 12:57:48;;;;;;;;;;;23.80;43.60;;;;;;6099204;23;19925;-81
2022/09/27 13:00:19;;;;;;;;;;;24.20;44.40;;;;;;6126235;23;20330;-81
2022/09/27 13:03:13;;;;;;;;;;;24.10;43.60;;;;;;6128929;23;19933;-82
2022/09/27 13:06:01;;;;;;;;;;;23.60;43.60;;;;;;6120828;23;20052;-81
2022/09/27 13:08:39;;;;;;;;;;;23.90;42.90;;;;;;6125524;23;19953;-82
2022/09/27 13:11:14;;;;;;;;;;;24.50;43.10;;;;;;6127237;23;19948;-81
2022/09/27 13:13:41;;;;;;;;;;;25.00;41.90;;;;;;6130364;23;19965;-82
2022/09/27 13:16:08;;;;;;;;;;;25.20;41.30;;;;;;6129404;23;19992;-82
2022/09/27 13:18:36;;;;;;;;;;;25.30;41.70;;;;;;6122509;23;20750;-82
2022/09/27 13:21:07;;;;;;;;;;;25.30;41.90;;;;;;6105216;23;19944;-82
2022/09/27 13:23:34;;;;;;;;;;;25.50;41.60;;;;;;6124150;23;19988;-82
2022/09/27 13:26:02;;;;;;;;;;;25.70;40.60;;;;;;6125303;23;19999;-82
2022/09/27 13:28:32;;;;;;;;;;;26.10;40.50;;;;;;6125397;23;19941;-82
2022/09/27 13:30:58;;;;;;;;;;;26.40;38.90;;;;;;6102397;23;19917;-82
2022/09/27 13:33:45;;;;;;;;;;;26.60;36.80;;;;;;6128218;23;19928;-83
2022/09/27 13:36:15;;;;;;;;;;;26.50;35.50;;;;;;6136127;23;19921;-82
2022/09/27 13:38:54;;;;;;;;;;;25.90;36.20;;;;;;6126420;23;19992;-82
2022/09/27 13:41:21;;;;;;;;;;;25.50;37.00;;;;;;6127040;23;19945;-82
2022/09/27 13:43:48;;;;;;;;;;;25.70;36.70;;;;;;6128996;23;19917;-82
2022/09/27 13:46:16;;;;;;;;;;;25.70;39.60;;;;;;6128646;23;19924;-82
2022/09/27 13:48:51;;;;;;;;;;;25.80;39.60;;;;;;6123672;23;19987;-82
2022/09/27 13:51:35;;;;;;;;;;;25.70;40.30;;;;;;6101882;23;19925;-82
2022/09/27 13:54:03;;;;;;;;;;;25.20;41.50;;;;;;6125426;23;19925;-82
2022/09/27 13:56:36;;;;;;;;;;;25.10;42.90;;;;;;6128433;23;19917;-82
2022/09/27 13:59:07;;;;;;;;;;;24.90;41.60;;;;;;6103674;23;19984;-82
2022/09/27 14:01:39;;;;;;;;;;;24.70;41.40;;;;;;6127794;23;19917;-82
2022/09/27 14:04:17;;;;;;;;;;;24.20;42.20;;;;;;6124902;23;19925;-83
2022/09/27 14:06:47;;;;;;;;;;;23.90;42.60;;;;;;6123904;23;19918;-82
2022/09/27 14:09:17;;;;;;;;;;;23.70;42.10;;;;;;6119078;23;19917;-83
2022/09/27 14:11:47;;;;;;;;;;;23.60;42.50;;;;;;6121261;23;19969;-82
2022/09/27 14:14:16;;;;;;;;;;;23.60;43.00;;;;;;6123801;23;20254;-83
2022/09/27 14:16:46;;;;;;;;;;;23.80;42.90;;;;;;6120330;23;20004;-82
2022/09/27 14:19:24;;;;;;;;;;;24.00;39.30;;;;;;6119411;23;19921;-82
2022/09/27 14:21:51;;;;;;;;;;;24.20;41.40;;;;;;6119368;23;19955;-82
2022/09/27 14:24:23;;;;;;;;;;;24.10;41.90;;;;;;6120929;23;20012;-82
2022/09/27 14:27:01;;;;;;;;;;;24.20;41.50;;;;;;6121273;23;19923;-82
2022/09/27 14:29:30;;;;;;;;;;;23.80;40.50;;;;;;6119843;23;19940;-82
2022/09/27 14:32:09;;;;;;;;;;;23.70;41.50;;;;;;6120084;23;19924;-82
2022/09/27 14:34:36;;;;;;;;;;;23.80;40.90;;;;;;6119733;23;19972;-82
2022/09/27 14:39:52;;;;;;;;;;;23.80;40.60;;;;;;6095942;23;19924;-82
2022/09/27 14:42:20;;;;;;;;;;;24.10;41.00;;;;;;6119431;23;20000;-82
2022/09/27 14:44:48;;;;;;;;;;;24.20;39.70;;;;;;6118402;23;20290;-82
2022/09/27 14:47:17;;;;;;;;;;;24.10;40.40;;;;;;6122474;23;20310;-83
2022/09/27 14:49:46;;;;;;;;;;;24.10;38.70;;;;;;6121561;23;20308;-82
2022/09/27 14:52:15;;;;;;;;;;;23.90;39.30;;;;;;6121999;23;19924;-82